Time;durP1;ratioP1;P1;durP2;ratioP2;P2;SDS_P1;SDS_P2;PMS_P1;PMS_P2;Temp;Humidity;BMP_temperature;BMP_pressure;BME280_temperature;BME280_humidity;BME280_pressure;Samples;Min_cycle;Max_cycle;Signal;HPM_P1;HPM_P2
2022/12/13 00:00:18;;;;;;;25.10;13.60;;;;;;;;;;5059484;28;20116;-78
2022/12/13 00:02:45;;;;;;;22.58;12.38;;;;;;;;;;5059382;28;20033;-78
2022/12/13 00:05:11;;;;;;;23.38;12.95;;;;;;;;;;5046101;28;20022;-78
2022/12/13 00:07:38;;;;;;;20.95;12.35;;;;;;;;;;5060615;28;20050;-78
2022/12/13 00:10:04;;;;;;;42.95;24.65;;;;;;;;;;5047959;28;20029;-78
2022/12/13 00:12:30;;;;;;;24.40;14.30;;;;;;;;;;5061965;28;20032;-79
2022/12/13 00:14:57;;;;;;;25.75;15.15;;;;;;;;;;5057478;28;20078;-78
2022/12/13 00:17:23;;;;;;;26.63;15.35;;;;;;;;;;5048685;28;20105;-79
2022/12/13 00:19:49;;;;;;;22.50;12.32;;;;;;;;;;5055734;28;20507;-79
2022/12/13 00:22:18;;;;;;;31.48;15.00;;;;;;;;;;5062067;28;20048;-78
2022/12/13 00:24:44;;;;;;;37.05;15.82;;;;;;;;;;5064140;28;20059;-77
2022/12/13 00:27:10;;;;;;;23.38;13.02;;;;;;;;;;5050952;28;20518;-79
2022/12/13 00:29:36;;;;;;;24.05;12.25;;;;;;;;;;5055053;28;20166;-77
2022/12/13 00:32:02;;;;;;;22.40;12.50;;;;;;;;;;5058000;28;20032;-79
2022/12/13 00:34:29;;;;;;;34.22;14.43;;;;;;;;;;5062495;28;20029;-78
2022/12/13 00:36:57;;;;;;;36.20;14.20;;;;;;;;;;5080847;28;20092;-80
2022/12/13 00:39:24;;;;;;;26.45;12.13;;;;;;;;;;5066903;28;20040;-77
2022/12/13 00:41:50;;;;;;;24.63;13.20;;;;;;;;;;5065874;28;20097;-77
2022/12/13 00:44:18;;;;;;;23.95;12.52;;;;;;;;;;5068827;28;20017;-79
2022/12/13 00:46:44;;;;;;;25.75;14.55;;;;;;;;;;5057102;28;20025;-80
2022/12/13 00:49:11;;;;;;;34.35;15.38;;;;;;;;;;5057266;28;20055;-79
2022/12/13 00:51:38;;;;;;;23.65;12.27;;;;;;;;;;5054497;28;20040;-79
2022/12/13 00:54:04;;;;;;;32.45;14.35;;;;;;;;;;5069774;28;20021;-80
2022/12/13 00:56:31;;;;;;;25.38;13.07;;;;;;;;;;5064326;28;20042;-79
2022/12/13 00:58:57;;;;;;;24.80;11.90;;;;;;;;;;5064806;28;20060;-79
2022/12/13 01:01:34;;;;;;;25.40;13.25;;;;;;;;;;5065913;28;20056;-78
2022/12/13 01:04:01;;;;;;;25.45;13.35;;;;;;;;;;5067548;28;20021;-77
2022/12/13 01:06:32;;;;;;;21.80;11.77;;;;;;;;;;5066503;28;20025;-77
2022/12/13 01:08:59;;;;;;;26.85;14.00;;;;;;;;;;5068489;28;20025;-79
2022/12/13 01:11:25;;;;;;;23.33;12.85;;;;;;;;;;5059881;28;20029;-78
2022/12/13 01:13:51;;;;;;;22.73;12.50;;;;;;;;;;5058959;28;20051;-78
2022/12/13 01:16:17;;;;;;;22.17;11.70;;;;;;;;;;5062481;28;20464;-77
2022/12/13 01:18:44;;;;;;;22.25;10.60;;;;;;;;;;5064969;28;20048;-80
2022/12/13 01:21:12;;;;;;;18.15;10.23;;;;;;;;;;5067565;28;20073;-79
2022/12/13 01:23:38;;;;;;;23.45;10.70;;;;;;;;;;5065247;28;20055;-77
2022/12/13 01:26:05;;;;;;;20.60;10.95;;;;;;;;;;5066588;28;20055;-78
2022/12/13 01:28:32;;;;;;;18.98;11.43;;;;;;;;;;5052967;28;20049;-76
2022/12/13 01:31:02;;;;;;;19.08;11.02;;;;;;;;;;5062685;28;20027;-77
2022/12/13 01:33:32;;;;;;;21.00;11.52;;;;;;;;;;5063032;28;20043;-77
2022/12/13 01:36:03;;;;;;;19.92;11.43;;;;;;;;;;5064403;28;20039;-77
2022/12/13 01:38:29;;;;;;;28.00;11.13;;;;;;;;;;5063415;28;20057;-77
2022/12/13 01:40:58;;;;;;;21.38;10.93;;;;;;;;;;5066878;28;20066;-78
2022/12/13 01:43:26;;;;;;;26.25;11.73;;;;;;;;;;5058041;28;20033;-78
2022/12/13 01:45:52;;;;;;;18.45;10.80;;;;;;;;;;5051850;28;20041;-77
2022/12/13 01:48:20;;;;;;;20.65;10.45;;;;;;;;;;5064408;28;20039;-77
2022/12/13 01:50:50;;;;;;;20.15;11.77;;;;;;;;;;5062909;28;20029;-77
2022/12/13 01:53:21;;;;;;;18.90;11.27;;;;;;;;;;5055919;28;20082;-77
2022/12/13 01:55:49;;;;;;;21.60;10.45;;;;;;;;;;5055528;28;20025;-77
2022/12/13 01:58:18;;;;;;;19.63;11.95;;;;;;;;;;5052806;28;20064;-76
2022/12/13 02:00:45;;;;;;;21.52;11.35;;;;;;;;;;5057294;28;20060;-76
2022/12/13 02:03:11;;;;;;;20.50;10.18;;;;;;;;;;5064919;28;20052;-78
2022/12/13 02:05:47;;;;;;;18.40;10.25;;;;;;;;;;5059442;28;20420;-74
2022/12/13 02:08:18;;;;;;;24.77;11.10;;;;;;;;;;5064027;28;20048;-78
2022/12/13 02:10:45;;;;;;;20.98;11.05;;;;;;;;;;5063922;28;20025;-77
2022/12/13 02:13:11;;;;;;;24.02;11.80;;;;;;;;;;5059985;28;20073;-77
2022/12/13 02:15:56;;;;;;;20.95;11.60;;;;;;;;;;5065088;28;20029;-77
2022/12/13 02:18:41;;;;;;;24.88;10.98;;;;;;;;;;5066853;28;20108;-76
2022/12/13 02:21:12;;;;;;;19.92;10.63;;;;;;;;;;5056010;28;20084;-77
2022/12/13 02:23:54;;;;;;;24.70;12.52;;;;;;;;;;5054421;28;20024;-76
2022/12/13 02:26:42;;;;;;;20.20;10.68;;;;;;;;;;5067632;28;20017;-77
2022/12/13 02:29:27;;;;;;;19.70;10.77;;;;;;;;;;5073254;28;20028;-78
2022/12/13 02:32:05;;;;;;;22.08;11.15;;;;;;;;;;5069458;28;20036;-76
2022/12/13 02:34:40;;;;;;;22.85;10.73;;;;;;;;;;5065449;28;20029;-77
2022/12/13 02:37:12;;;;;;;19.30;11.00;;;;;;;;;;5060240;28;20033;-79
2022/12/13 02:39:44;;;;;;;23.98;12.00;;;;;;;;;;5058628;28;20040;-76
2022/12/13 02:42:18;;;;;;;23.95;11.55;;;;;;;;;;5058404;28;20056;-77
2022/12/13 02:44:50;;;;;;;24.63;11.68;;;;;;;;;;5060525;28;20017;-77
2022/12/13 02:47:20;;;;;;;19.02;12.18;;;;;;;;;;5070978;28;20036;-77
2022/12/13 02:49:51;;;;;;;20.63;10.95;;;;;;;;;;5058344;28;20041;-78
2022/12/13 02:52:19;;;;;;;22.83;12.48;;;;;;;;;;5060490;28;20024;-76
2022/12/13 02:54:46;;;;;;;24.13;11.32;;;;;;;;;;5045867;28;20097;-76
2022/12/13 02:57:31;;;;;;;21.05;10.55;;;;;;;;;;5062815;28;20028;-74
2022/12/13 03:00:08;;;;;;;16.38;9.82;;;;;;;;;;5062579;28;20045;-78
2022/12/13 03:02:54;;;;;;;17.73;9.98;;;;;;;;;;5047640;28;20024;-77
2022/12/13 03:08:24;;;;;;;17.77;9.70;;;;;;;;;;5058736;28;20497;-76
2022/12/13 03:10:53;;;;;;;19.35;10.13;;;;;;;;;;5063336;28;20017;-75
2022/12/13 03:13:37;;;;;;;18.95;10.68;;;;;;;;;;5062417;28;20040;-76
2022/12/13 03:16:07;;;;;;;24.08;12.77;;;;;;;;;;5049196;28;20014;-76
2022/12/13 03:18:34;;;;;;;19.27;11.00;;;;;;;;;;5057356;28;20026;-79
2022/12/13 03:21:01;;;;;;;21.50;11.48;;;;;;;;;;5049241;28;20459;-77
2022/12/13 03:23:28;;;;;;;20.55;11.15;;;;;;;;;;5061080;28;20033;-76
2022/12/13 03:25:56;;;;;;;21.40;11.68;;;;;;;;;;5048237;28;20093;-78
2022/12/13 03:28:22;;;;;;;21.95;10.70;;;;;;;;;;5054649;28;20033;-74
2022/12/13 03:30:49;;;;;;;18.55;10.82;;;;;;;;;;5058591;28;20025;-78
2022/12/13 03:33:15;;;;;;;18.70;11.05;;;;;;;;;;5062197;28;20389;-77
2022/12/13 03:35:42;;;;;;;23.73;10.82;;;;;;;;;;5059106;28;20021;-79
2022/12/13 03:38:08;;;;;;;17.88;9.93;;;;;;;;;;5051361;28;20109;-78
2022/12/13 03:40:35;;;;;;;21.02;11.40;;;;;;;;;;5057666;28;20017;-77
2022/12/13 03:43:01;;;;;;;20.40;10.18;;;;;;;;;;5048400;28;20347;-77
2022/12/13 03:45:28;;;;;;;19.00;10.48;;;;;;;;;;5056587;28;20721;-77
2022/12/13 03:47:54;;;;;;;18.80;9.98;;;;;;;;;;5056255;28;20083;-76
2022/12/13 03:50:20;;;;;;;19.23;10.48;;;;;;;;;;5056346;28;20029;-78
2022/12/13 03:52:50;;;;;;;22.13;12.10;;;;;;;;;;5057407;28;20102;-77
2022/12/13 03:55:17;;;;;;;24.63;11.05;;;;;;;;;;5041902;28;20037;-79
2022/12/13 03:57:43;;;;;;;20.02;11.68;;;;;;;;;;5054809;28;20032;-79
2022/12/13 04:00:09;;;;;;;22.38;10.77;;;;;;;;;;5053625;28;20052;-77
2022/12/13 04:02:36;;;;;;;16.00;10.38;;;;;;;;;;5055787;28;20021;-79
2022/12/13 04:05:02;;;;;;;18.05;9.52;;;;;;;;;;5047838;28;20033;-78
2022/12/13 04:07:28;;;;;;;16.63;9.55;;;;;;;;;;5055435;28;20037;-77
2022/12/13 04:09:54;;;;;;;18.67;10.48;;;;;;;;;;5051183;28;20387;-78
2022/12/13 04:15:05;;;;;;;17.83;10.00;;;;;;;;;;5053961;28;20390;-78
2022/12/13 04:17:31;;;;;;;19.88;9.82;;;;;;;;;;5053234;28;20021;-79
2022/12/13 04:19:57;;;;;;;18.83;10.52;;;;;;;;;;5057798;28;20043;-77
2022/12/13 04:22:23;;;;;;;23.52;10.60;;;;;;;;;;5068248;28;20021;-78
2022/12/13 04:24:49;;;;;;;18.63;11.02;;;;;;;;;;5056707;28;20032;-79
2022/12/13 04:27:15;;;;;;;18.10;10.45;;;;;;;;;;5054005;28;20025;-77
2022/12/13 04:29:42;;;;;;;20.50;11.45;;;;;;;;;;5053563;28;20063;-76
2022/12/13 04:32:08;;;;;;;19.45;10.25;;;;;;;;;;5065577;28;20045;-78
2022/12/13 04:34:34;;;;;;;19.58;10.82;;;;;;;;;;5065066;28;20546;-77
2022/12/13 04:37:01;;;;;;;20.48;9.77;;;;;;;;;;5049009;28;20155;-77
2022/12/13 04:39:27;;;;;;;17.90;10.02;;;;;;;;;;5047263;28;20559;-77
2022/12/13 04:41:53;;;;;;;18.58;11.23;;;;;;;;;;5044534;28;20048;-77
2022/12/13 04:44:19;;;;;;;22.63;10.00;;;;;;;;;;5056045;28;20057;-75
2022/12/13 04:46:45;;;;;;;15.38;9.40;;;;;;;;;;5046502;28;20094;-76
2022/12/13 04:49:11;;;;;;;20.52;10.68;;;;;;;;;;5056094;28;20025;-79
2022/12/13 04:51:37;;;;;;;19.17;10.45;;;;;;;;;;5052354;28;20174;-78
2022/12/13 04:54:04;;;;;;;16.52;10.27;;;;;;;;;;5043418;28;20025;-79
2022/12/13 04:56:30;;;;;;;19.27;10.55;;;;;;;;;;5048326;28;20041;-76
2022/12/13 04:58:56;;;;;;;18.65;10.20;;;;;;;;;;5049357;28;20013;-76
2022/12/13 05:01:22;;;;;;;21.20;11.15;;;;;;;;;;5054400;28;20025;-77
2022/12/13 05:03:48;;;;;;;18.15;9.77;;;;;;;;;;5055563;28;20021;-78
2022/12/13 05:06:14;;;;;;;23.67;11.60;;;;;;;;;;5055247;28;20312;-78
2022/12/13 05:08:41;;;;;;;15.75;9.50;;;;;;;;;;5062874;28;20048;-78
2022/12/13 05:11:07;;;;;;;20.60;11.25;;;;;;;;;;5059924;28;20025;-79
2022/12/13 05:13:34;;;;;;;22.83;10.95;;;;;;;;;;5060534;28;20021;-77
2022/12/13 05:16:01;;;;;;;15.30;9.48;;;;;;;;;;5056380;28;20020;-78
2022/12/13 05:18:28;;;;;;;21.48;10.70;;;;;;;;;;5055891;28;20048;-76
2022/12/13 05:20:54;;;;;;;25.75;12.07;;;;;;;;;;5053360;28;20017;-77
2022/12/13 05:23:22;;;;;;;16.67;9.95;;;;;;;;;;5050363;28;20068;-79
2022/12/13 05:25:48;;;;;;;20.38;10.50;;;;;;;;;;5049180;28;20097;-78
2022/12/13 05:28:14;;;;;;;21.83;11.43;;;;;;;;;;5055299;28;20498;-78
2022/12/13 05:30:41;;;;;;;19.00;10.20;;;;;;;;;;5053110;28;20517;-79
2022/12/13 05:33:07;;;;;;;19.85;10.82;;;;;;;;;;5058097;28;20032;-78
2022/12/13 05:35:33;;;;;;;21.48;11.00;;;;;;;;;;5046987;28;20021;-78
2022/12/13 05:37:59;;;;;;;23.63;11.23;;;;;;;;;;5060638;28;20025;-78
2022/12/13 05:40:27;;;;;;;15.98;9.45;;;;;;;;;;5051037;28;20016;-77
2022/12/13 05:42:53;;;;;;;20.85;11.32;;;;;;;;;;5067073;28;20021;-77
2022/12/13 05:45:19;;;;;;;20.50;11.23;;;;;;;;;;5053629;28;20400;-78
2022/12/13 05:47:50;;;;;;;18.48;10.35;;;;;;;;;;5056809;28;20025;-77
2022/12/13 05:50:16;;;;;;;18.10;10.13;;;;;;;;;;5060796;28;20025;-76
2022/12/13 05:52:43;;;;;;;18.80;10.93;;;;;;;;;;5061099;28;20116;-77
2022/12/13 05:55:09;;;;;;;18.65;10.68;;;;;;;;;;5059731;28;20427;-78
2022/12/13 05:57:36;;;;;;;18.33;10.20;;;;;;;;;;5055840;28;20031;-76
2022/12/13 06:00:03;;;;;;;19.77;11.00;;;;;;;;;;5056838;28;20481;-77
2022/12/13 06:02:29;;;;;;;21.42;10.13;;;;;;;;;;5052993;28;20041;-78
2022/12/13 06:04:55;;;;;;;20.17;11.63;;;;;;;;;;5056398;28;20036;-78
2022/12/13 06:07:21;;;;;;;20.10;11.25;;;;;;;;;;5055398;28;20502;-77
2022/12/13 06:09:47;;;;;;;20.63;11.07;;;;;;;;;;5056892;28;20054;-78
2022/12/13 06:12:15;;;;;;;17.50;10.02;;;;;;;;;;5053686;28;20037;-78
2022/12/13 06:14:41;;;;;;;17.67;10.70;;;;;;;;;;5061612;28;20025;-78
2022/12/13 06:17:07;;;;;;;21.55;11.07;;;;;;;;;;5058136;28;20498;-76
2022/12/13 06:19:33;;;;;;;20.45;11.38;;;;;;;;;;5057665;28;20029;-77
2022/12/13 06:21:59;;;;;;;19.05;10.80;;;;;;;;;;5057168;28;20025;-76
2022/12/13 06:24:26;;;;;;;19.20;10.73;;;;;;;;;;5056055;28;20112;-78
2022/12/13 06:26:52;;;;;;;21.92;10.65;;;;;;;;;;5055629;28;20033;-78
2022/12/13 06:29:20;;;;;;;19.00;9.65;;;;;;;;;;5056867;28;20048;-78
2022/12/13 06:31:46;;;;;;;20.58;10.20;;;;;;;;;;5058346;28;20025;-77
2022/12/13 06:34:12;;;;;;;16.67;9.93;;;;;;;;;;5054356;28;20025;-76
2022/12/13 06:36:39;;;;;;;16.67;10.35;;;;;;;;;;5064667;28;20053;-77
2022/12/13 06:39:06;;;;;;;18.35;9.63;;;;;;;;;;5061210;28;20025;-76
2022/12/13 06:41:32;;;;;;;16.80;10.57;;;;;;;;;;5062261;28;20029;-77
2022/12/13 06:43:58;;;;;;;19.15;9.88;;;;;;;;;;5065119;28;20057;-75
2022/12/13 06:46:24;;;;;;;19.75;10.38;;;;;;;;;;5053179;28;20076;-77
2022/12/13 06:48:51;;;;;;;20.67;10.88;;;;;;;;;;5075398;28;20033;-78
2022/12/13 06:51:18;;;;;;;22.60;11.10;;;;;;;;;;5051818;28;20390;-77
2022/12/13 06:53:44;;;;;;;20.45;11.48;;;;;;;;;;5055603;28;20037;-76
2022/12/13 06:56:11;;;;;;;32.92;13.23;;;;;;;;;;5070507;28;20037;-77
2022/12/13 06:58:37;;;;;;;35.25;14.63;;;;;;;;;;5063750;28;20482;-77
2022/12/13 07:01:04;;;;;;;44.22;18.02;;;;;;;;;;5065590;28;20032;-77
2022/12/13 07:03:31;;;;;;;45.20;17.25;;;;;;;;;;5061559;28;20033;-79
2022/12/13 07:05:58;;;;;;;44.28;15.50;;;;;;;;;;5069508;28;20021;-77
2022/12/13 07:08:24;;;;;;;32.22;13.60;;;;;;;;;;5067796;28;20091;-77
2022/12/13 07:10:52;;;;;;;28.73;12.57;;;;;;;;;;5069948;28;20025;-77
2022/12/13 07:13:19;;;;;;;26.40;12.60;;;;;;;;;;5068836;28;20051;-77
2022/12/13 07:15:46;;;;;;;40.63;14.65;;;;;;;;;;5065547;28;20036;-76
2022/12/13 07:18:12;;;;;;;54.03;16.58;;;;;;;;;;5065257;28;20029;-77
2022/12/13 07:20:41;;;;;;;52.90;16.52;;;;;;;;;;5068821;28;20045;-78
2022/12/13 07:23:07;;;;;;;27.92;12.85;;;;;;;;;;5067544;28;20055;-76
2022/12/13 07:25:34;;;;;;;50.65;15.82;;;;;;;;;;5066606;28;20432;-76
2022/12/13 07:28:01;;;;;;;55.03;18.65;;;;;;;;;;5065310;28;20029;-77
2022/12/13 07:30:27;;;;;;;48.90;18.50;;;;;;;;;;5060023;28;20044;-77
2022/12/13 07:32:53;;;;;;;49.22;15.68;;;;;;;;;;5047199;28;20033;-76
2022/12/13 07:35:19;;;;;;;36.47;14.82;;;;;;;;;;5066588;28;20021;-76
2022/12/13 07:37:45;;;;;;;26.40;11.50;;;;;;;;;;5069531;28;20024;-77
2022/12/13 07:40:11;;;;;;;23.08;10.93;;;;;;;;;;5066121;28;20032;-78
2022/12/13 07:42:38;;;;;;;21.25;10.45;;;;;;;;;;5069663;28;20025;-77
2022/12/13 07:45:04;;;;;;;21.13;10.02;;;;;;;;;;5067627;28;20021;-78
2022/12/13 07:47:31;;;;;;;25.23;12.00;;;;;;;;;;5065409;28;20084;-79
2022/12/13 07:49:57;;;;;;;18.13;10.38;;;;;;;;;;5068634;28;20025;-79
2022/12/13 07:52:23;;;;;;;22.08;11.10;;;;;;;;;;5071823;28;20025;-78
2022/12/13 07:54:49;;;;;;;20.10;12.02;;;;;;;;;;5072133;28;20033;-77
2022/12/13 07:57:15;;;;;;;15.93;10.15;;;;;;;;;;5072374;28;20081;-78
2022/12/13 07:59:42;;;;;;;14.77;9.43;;;;;;;;;;5068767;28;20025;-77
2022/12/13 08:02:12;;;;;;;16.15;9.40;;;;;;;;;;5065623;28;20040;-77
2022/12/13 08:04:38;;;;;;;15.57;9.60;;;;;;;;;;5069560;28;20021;-78
2022/12/13 08:07:08;;;;;;;18.05;9.82;;;;;;;;;;5057715;28;20041;-78
2022/12/13 08:09:34;;;;;;;15.50;11.40;;;;;;;;;;5061618;28;20056;-77
2022/12/13 08:12:00;;;;;;;18.95;10.32;;;;;;;;;;5067590;28;20029;-77
2022/12/13 08:14:26;;;;;;;15.77;10.77;;;;;;;;;;5064755;28;20030;-76
2022/12/13 08:16:53;;;;;;;18.42;10.85;;;;;;;;;;5058812;28;20026;-76
2022/12/13 08:19:19;;;;;;;17.52;10.23;;;;;;;;;;5064114;28;20052;-77
2022/12/13 08:21:45;;;;;;;19.85;11.15;;;;;;;;;;5059513;28;20081;-77
2022/12/13 08:24:18;;;;;;;15.98;10.95;;;;;;;;;;5064446;28;20024;-78
2022/12/13 08:26:44;;;;;;;18.65;10.82;;;;;;;;;;5073120;28;20029;-77
2022/12/13 08:29:14;;;;;;;23.08;11.77;;;;;;;;;;5057741;28;20107;-78
2022/12/13 08:31:40;;;;;;;18.45;10.77;;;;;;;;;;5054309;28;20073;-78
2022/12/13 08:34:07;;;;;;;17.52;11.30;;;;;;;;;;5068723;28;20029;-78
2022/12/13 08:36:34;;;;;;;19.13;11.23;;;;;;;;;;5069665;28;20467;-78
2022/12/13 08:39:01;;;;;;;17.25;10.45;;;;;;;;;;5066797;28;20485;-77
2022/12/13 08:41:28;;;;;;;15.90;9.70;;;;;;;;;;5064597;28;20028;-77
2022/12/13 08:43:54;;;;;;;18.60;10.35;;;;;;;;;;5066626;28;20028;-77
2022/12/13 08:46:20;;;;;;;20.08;10.48;;;;;;;;;;5065779;28;20025;-77
2022/12/13 08:48:47;;;;;;;17.48;9.93;;;;;;;;;;5063457;28;20475;-78
2022/12/13 08:51:14;;;;;;;15.55;9.30;;;;;;;;;;5066732;28;20029;-78
2022/12/13 08:53:41;;;;;;;15.73;9.48;;;;;;;;;;5061890;28;20421;-77
2022/12/13 08:56:09;;;;;;;16.65;9.80;;;;;;;;;;5066175;28;20131;-77
2022/12/13 08:58:36;;;;;;;15.95;9.13;;;;;;;;;;5064590;28;20025;-78
2022/12/13 09:01:06;;;;;;;18.48;9.50;;;;;;;;;;5052936;28;20017;-77
2022/12/13 09:03:32;;;;;;;16.45;9.48;;;;;;;;;;5068797;28;20478;-77
2022/12/13 09:06:09;;;;;;;15.57;9.73;;;;;;;;;;5069053;28;20029;-77
2022/12/13 09:08:35;;;;;;;14.77;9.52;;;;;;;;;;5061208;28;20061;-77
2022/12/13 09:11:02;;;;;;;14.80;10.20;;;;;;;;;;5052869;28;20025;-78
2022/12/13 09:13:29;;;;;;;16.35;10.05;;;;;;;;;;5065109;28;20063;-78
2022/12/13 09:15:55;;;;;;;16.17;10.25;;;;;;;;;;5069124;28;20028;-77
2022/12/13 09:18:22;;;;;;;16.98;8.63;;;;;;;;;;5054932;28;20030;-77
2022/12/13 09:20:48;;;;;;;21.48;11.80;;;;;;;;;;5065042;28;20025;-79
2022/12/13 09:23:15;;;;;;;20.65;12.00;;;;;;;;;;5067551;28;20028;-79
2022/12/13 09:25:41;;;;;;;18.33;11.27;;;;;;;;;;5069834;28;20039;-78
2022/12/13 09:28:08;;;;;;;23.95;11.57;;;;;;;;;;5073740;28;20032;-77
2022/12/13 09:30:35;;;;;;;20.85;11.88;;;;;;;;;;5050976;28;20495;-78
2022/12/13 09:33:01;;;;;;;24.48;12.75;;;;;;;;;;5067813;28;20064;-78
2022/12/13 09:35:28;;;;;;;19.80;11.38;;;;;;;;;;5066939;28;20029;-77
2022/12/13 09:37:54;;;;;;;16.45;10.30;;;;;;;;;;5067840;28;20058;-77
2022/12/13 09:40:23;;;;;;;19.77;10.93;;;;;;;;;;5069403;28;20356;-78
2022/12/13 09:42:51;;;;;;;21.25;10.52;;;;;;;;;;5066987;28;20024;-78
2022/12/13 09:45:18;;;;;;;17.80;11.35;;;;;;;;;;5066927;28;20051;-78
2022/12/13 09:47:46;;;;;;;16.17;10.40;;;;;;;;;;5050743;28;20025;-77
2022/12/13 09:50:25;;;;;;;15.13;10.07;;;;;;;;;;5049976;28;20029;-78
2022/12/13 09:52:51;;;;;;;16.27;10.05;;;;;;;;;;5057838;28;20207;-77
2022/12/13 09:58:30;;;;;;;16.00;9.55;;;;;;;;;;5052169;28;20036;-78
2022/12/13 10:00:57;;;;;;;17.50;10.10;;;;;;;;;;5060457;28;20052;-79
2022/12/13 10:03:24;;;;;;;19.42;10.13;;;;;;;;;;5048842;28;20042;-78
2022/12/13 10:05:57;;;;;;;14.93;10.40;;;;;;;;;;5049726;28;20030;-77
2022/12/13 10:08:27;;;;;;;19.52;10.57;;;;;;;;;;5066758;28;20035;-77
2022/12/13 10:10:53;;;;;;;16.40;9.70;;;;;;;;;;5060393;28;20030;-77
2022/12/13 10:13:21;;;;;;;13.07;9.38;;;;;;;;;;5065475;28;20048;-77
2022/12/13 10:15:49;;;;;;;16.50;10.70;;;;;;;;;;5053610;28;20048;-77
2022/12/13 10:18:20;;;;;;;16.52;9.68;;;;;;;;;;5047134;28;20029;-78
2022/12/13 10:20:49;;;;;;;17.17;11.07;;;;;;;;;;5067413;28;20025;-77
2022/12/13 10:23:16;;;;;;;19.05;10.98;;;;;;;;;;5067289;28;20053;-78
2022/12/13 10:25:48;;;;;;;14.55;10.57;;;;;;;;;;5067036;28;20034;-79
2022/12/13 10:28:16;;;;;;;15.98;11.20;;;;;;;;;;5057215;28;20096;-78
2022/12/13 10:30:43;;;;;;;24.08;12.38;;;;;;;;;;5067715;28;20089;-78
2022/12/13 10:33:29;;;;;;;17.90;11.35;;;;;;;;;;5051052;28;20383;-79
2022/12/13 10:36:15;;;;;;;17.17;10.15;;;;;;;;;;5064119;28;20028;-76
2022/12/13 10:38:45;;;;;;;19.00;10.02;;;;;;;;;;5055487;28;20029;-78
2022/12/13 10:41:30;;;;;;;18.45;10.38;;;;;;;;;;5069242;28;20072;-76
2022/12/13 10:44:11;;;;;;;16.40;9.57;;;;;;;;;;5066751;28;20025;-77
2022/12/13 10:46:42;;;;;;;14.57;9.77;;;;;;;;;;5061400;28;20064;-80
2022/12/13 10:49:22;;;;;;;14.35;9.18;;;;;;;;;;5070201;28;20036;-79
2022/12/13 10:51:50;;;;;;;14.57;9.80;;;;;;;;;;5051502;28;20022;-79
2022/12/13 10:54:21;;;;;;;16.65;10.32;;;;;;;;;;5062832;28;20109;-80
2022/12/13 10:56:49;;;;;;;13.15;9.55;;;;;;;;;;5072469;28;20036;-78
2022/12/13 10:59:19;;;;;;;16.45;9.63;;;;;;;;;;5060889;28;20033;-78
2022/12/13 11:01:46;;;;;;;12.23;9.50;;;;;;;;;;5069575;28;20032;-77
2022/12/13 11:04:24;;;;;;;13.48;8.50;;;;;;;;;;5067309;28;20121;-77
2022/12/13 11:06:50;;;;;;;12.40;9.05;;;;;;;;;;5060267;28;20059;-79
2022/12/13 11:09:30;;;;;;;13.80;8.80;;;;;;;;;;5074142;28;20021;-78
2022/12/13 11:11:58;;;;;;;11.73;8.40;;;;;;;;;;5071344;28;20021;-78
2022/12/13 11:14:25;;;;;;;13.32;9.60;;;;;;;;;;5068659;28;20029;-78
2022/12/13 11:16:55;;;;;;;13.05;8.52;;;;;;;;;;5064213;28;20025;-77
2022/12/13 11:19:23;;;;;;;14.10;8.48;;;;;;;;;;5061944;28;20425;-77
2022/12/13 11:21:50;;;;;;;12.60;8.00;;;;;;;;;;5084705;28;20057;-77
2022/12/13 11:24:36;;;;;;;11.77;8.57;;;;;;;;;;5068938;28;20028;-77
2022/12/13 11:27:28;;;;;;;14.32;8.57;;;;;;;;;;5067445;28;20040;-78
2022/12/13 11:30:07;;;;;;;13.38;7.25;;;;;;;;;;5058774;28;20101;-77
2022/12/13 11:32:49;;;;;;;12.68;7.55;;;;;;;;;;5066844;28;20028;-78
2022/12/13 11:35:20;;;;;;;14.77;7.88;;;;;;;;;;5069233;28;20013;-77
2022/12/13 11:38:22;;;;;;;13.40;7.88;;;;;;;;;;5070669;28;20430;-78
2022/12/13 11:40:58;;;;;;;15.70;7.85;;;;;;;;;;5008883;28;20497;-78
2022/12/13 11:43:39;;;;;;;11.40;7.93;;;;;;;;;;5060572;28;20123;-77
2022/12/13 11:46:11;;;;;;;12.18;8.05;;;;;;;;;;5069121;28;20024;-76
2022/12/13 11:48:58;;;;;;;12.95;7.75;;;;;;;;;;5068614;28;20035;-76
2022/12/13 11:51:27;;;;;;;14.90;8.55;;;;;;;;;;5068672;28;20088;-76
2022/12/13 11:54:04;;;;;;;17.60;9.23;;;;;;;;;;5068908;28;20036;-77
2022/12/13 11:56:33;;;;;;;13.45;7.72;;;;;;;;;;5068830;28;20025;-78
2022/12/13 11:59:06;;;;;;;13.55;8.32;;;;;;;;;;5071577;28;20084;-78
2022/12/13 12:01:40;;;;;;;14.77;8.23;;;;;;;;;;5068858;28;20100;-77
2022/12/13 12:04:25;;;;;;;14.05;7.95;;;;;;;;;;5068530;28;20025;-77
2022/12/13 12:06:54;;;;;;;13.82;8.25;;;;;;;;;;5068467;28;20486;-76
2022/12/13 12:09:22;;;;;;;11.63;7.32;;;;;;;;;;5069194;28;20031;-79
2022/12/13 12:11:53;;;;;;;9.52;6.45;;;;;;;;;;5074717;28;20032;-77
2022/12/13 12:14:23;;;;;;;13.27;8.25;;;;;;;;;;5070768;28;20096;-78
2022/12/13 12:16:54;;;;;;;10.13;7.05;;;;;;;;;;5091579;28;20028;-79
2022/12/13 12:19:30;;;;;;;12.18;7.10;;;;;;;;;;5073986;28;20028;-78
2022/12/13 12:22:15;;;;;;;12.43;8.70;;;;;;;;;;5069518;28;20025;-76
2022/12/13 12:24:53;;;;;;;15.70;8.82;;;;;;;;;;5069428;28;20025;-78
2022/12/13 12:27:27;;;;;;;16.63;8.25;;;;;;;;;;5072951;28;20029;-78
2022/12/13 12:29:58;;;;;;;13.50;7.88;;;;;;;;;;5070333;28;20056;-77
2022/12/13 12:32:30;;;;;;;15.02;8.27;;;;;;;;;;5071703;28;20036;-77
2022/12/13 12:35:04;;;;;;;17.98;9.73;;;;;;;;;;5070864;28;20033;-77
2022/12/13 12:37:48;;;;;;;15.23;8.40;;;;;;;;;;5069874;28;20036;-77
2022/12/13 12:40:31;;;;;;;15.40;9.25;;;;;;;;;;5068649;28;20029;-77
2022/12/13 12:43:16;;;;;;;27.83;14.18;;;;;;;;;;5071334;28;20018;-77
2022/12/13 12:46:01;;;;;;;51.63;21.90;;;;;;;;;;5063868;28;20044;-78
2022/12/13 12:48:39;;;;;;;36.35;17.52;;;;;;;;;;5069450;28;20053;-77
2022/12/13 12:51:19;;;;;;;19.83;12.75;;;;;;;;;;5068284;28;20055;-77
2022/12/13 12:54:06;;;;;;;20.98;10.13;;;;;;;;;;5067974;28;20025;-77
2022/12/13 12:56:33;;;;;;;19.00;11.10;;;;;;;;;;5057616;28;20032;-79
2022/12/13 12:59:08;;;;;;;23.67;12.57;;;;;;;;;;5066003;28;20021;-76
2022/12/13 13:01:43;;;;;;;20.77;11.18;;;;;;;;;;5071331;28;20025;-78
2022/12/13 13:04:11;;;;;;;22.15;12.80;;;;;;;;;;5070205;28;20029;-78
2022/12/13 13:06:39;;;;;;;20.13;12.38;;;;;;;;;;5068116;28;20047;-78
2022/12/13 13:09:07;;;;;;;21.95;12.52;;;;;;;;;;5063535;28;20484;-77
2022/12/13 13:11:43;;;;;;;15.27;9.15;;;;;;;;;;5070795;28;20033;-77
2022/12/13 13:14:29;;;;;;;15.48;9.40;;;;;;;;;;5070207;28;20029;-78
2022/12/13 13:16:56;;;;;;;18.60;12.07;;;;;;;;;;5069831;28;20032;-77
2022/12/13 13:19:22;;;;;;;15.45;9.80;;;;;;;;;;5070196;28;20021;-78
2022/12/13 13:21:54;;;;;;;12.73;9.15;;;;;;;;;;5073764;28;20025;-79
2022/12/13 13:24:20;;;;;;;14.88;8.93;;;;;;;;;;5068919;28;20029;-78
2022/12/13 13:26:50;;;;;;;12.75;8.52;;;;;;;;;;5069216;28;20024;-78
2022/12/13 13:29:22;;;;;;;14.32;9.00;;;;;;;;;;5070462;28;20040;-78
2022/12/13 13:31:57;;;;;;;13.23;8.73;;;;;;;;;;5067862;28;20048;-77
2022/12/13 13:34:27;;;;;;;14.32;9.07;;;;;;;;;;5055199;28;20021;-77
2022/12/13 13:36:55;;;;;;;12.27;9.52;;;;;;;;;;5070089;28;20048;-77
2022/12/13 13:39:27;;;;;;;14.25;9.43;;;;;;;;;;5053828;28;20024;-77
2022/12/13 13:42:08;;;;;;;13.80;10.05;;;;;;;;;;5065193;28;20085;-77
2022/12/13 13:44:41;;;;;;;13.65;8.85;;;;;;;;;;5071322;28;20093;-77
2022/12/13 13:47:12;;;;;;;14.05;8.38;;;;;;;;;;5061234;28;20174;-78
2022/12/13 13:49:42;;;;;;;13.10;7.95;;;;;;;;;;5046591;28;20383;-77
2022/12/13 13:52:08;;;;;;;18.17;10.60;;;;;;;;;;5061616;28;20028;-77
2022/12/13 13:54:34;;;;;;;19.75;10.70;;;;;;;;;;5066430;28;20024;-77
2022/12/13 13:57:20;;;;;;;20.40;10.70;;;;;;;;;;5068036;28;20021;-77
2022/12/13 13:59:46;;;;;;;18.63;12.57;;;;;;;;;;5060700;28;20052;-77
2022/12/13 14:02:31;;;;;;;22.35;10.60;;;;;;;;;;5053501;28;20021;-77
2022/12/13 14:05:15;;;;;;;18.30;10.50;;;;;;;;;;5072868;28;20029;-78
2022/12/13 14:07:47;;;;;;;23.05;11.23;;;;;;;;;;5065826;28;20052;-77
2022/12/13 14:10:37;;;;;;;15.85;10.85;;;;;;;;;;5067783;28;20029;-76
2022/12/13 14:13:22;;;;;;;15.15;8.88;;;;;;;;;;5071783;28;20065;-78
2022/12/13 14:15:48;;;;;;;15.95;9.60;;;;;;;;;;5071753;28;20025;-77
2022/12/13 14:18:34;;;;;;;13.85;8.70;;;;;;;;;;5071082;28;20089;-78
2022/12/13 14:21:05;;;;;;;18.83;9.38;;;;;;;;;;5063883;28;20025;-77
2022/12/13 14:23:44;;;;;;;16.35;11.18;;;;;;;;;;5072558;28;20036;-79
2022/12/13 14:26:26;;;;;;;18.48;10.98;;;;;;;;;;5070753;28;20024;-78
2022/12/13 14:29:13;;;;;;;16.27;10.23;;;;;;;;;;5073634;28;20036;-79
2022/12/13 14:31:41;;;;;;;21.25;11.05;;;;;;;;;;5076053;28;20020;-78
2022/12/13 14:34:07;;;;;;;16.33;10.07;;;;;;;;;;5073736;28;20032;-79
2022/12/13 14:36:37;;;;;;;17.02;10.75;;;;;;;;;;5066503;28;20069;-78
2022/12/13 14:39:13;;;;;;;19.50;10.32;;;;;;;;;;5076186;28;20017;-77
2022/12/13 14:41:39;;;;;;;;;;;;;;;;;;5068277;28;20032;-78
2022/12/13 14:44:23;;;;;;;17.92;9.80;;;;;;;;;;5077594;28;19896;-79